sensor_id;sensor_type;location;lat;lon;timestamp;temperature;humidity
52769;DHT22;40471;44.534;18.644;2023-08-24T00:00:40;24.30;99.90
52769;DHT22;40471;44.534;18.644;2023-08-24T00:03:06;24.20;99.90
52769;DHT22;40471;44.534;18.644;2023-08-24T00:05:35;24.10;99.90
52769;DHT22;40471;44.534;18.644;2023-08-24T00:08:04;24.10;99.90
52769;DHT22;40471;44.534;18.644;2023-08-24T00:10:30;24.00;99.90
52769;DHT22;40471;44.534;18.644;2023-08-24T00:12:56;24.00;99.90
52769;DHT22;40471;44.534;18.644;2023-08-24T00:15:21;24.10;99.90
52769;DHT22;40471;44.534;18.644;2023-08-24T00:17:47;24.10;99.90
52769;DHT22;40471;44.534;18.644;2023-08-24T00:20:12;24.10;99.90
52769;DHT22;40471;44.534;18.644;2023-08-24T00:22:39;24.10;99.90
52769;DHT22;40471;44.534;18.644;2023-08-24T00:25:06;24.20;99.90
52769;DHT22;40471;44.534;18.644;2023-08-24T00:27:31;24.20;99.90
52769;DHT22;40471;44.534;18.644;2023-08-24T00:29:57;24.10;99.90
52769;DHT22;40471;44.534;18.644;2023-08-24T00:32:22;24.00;99.90
52769;DHT22;40471;44.534;18.644;2023-08-24T00:34:48;23.90;99.90
52769;DHT22;40471;44.534;18.644;2023-08-24T00:37:14;23.90;99.90
52769;DHT22;40471;44.534;18.644;2023-08-24T00:39:39;23.80;99.90
52769;DHT22;40471;44.534;18.644;2023-08-24T00:42:05;23.80;99.90
52769;DHT22;40471;44.534;18.644;2023-08-24T00:44:31;23.80;99.90
52769;DHT22;40471;44.534;18.644;2023-08-24T00:46:57;23.70;99.90
52769;DHT22;40471;44.534;18.644;2023-08-24T00:49:23;23.70;99.90
52769;DHT22;40471;44.534;18.644;2023-08-24T00:51:49;23.70;99.90
52769;DHT22;40471;44.534;18.644;2023-08-24T00:54:15;23.80;99.90
52769;DHT22;40471;44.534;18.644;2023-08-24T00:56:41;23.80;99.90
52769;DHT22;40471;44.534;18.644;2023-08-24T00:59:06;23.80;99.90
52769;DHT22;40471;44.534;18.644;2023-08-24T01:01:32;23.80;99.90
52769;DHT22;40471;44.534;18.644;2023-08-24T01:03:58;23.70;99.90
52769;DHT22;40471;44.534;18.644;2023-08-24T01:06:23;23.80;99.90
52769;DHT22;40471;44.534;18.644;2023-08-24T01:08:49;23.90;99.90
52769;DHT22;40471;44.534;18.644;2023-08-24T01:11:18;23.80;99.90
52769;DHT22;40471;44.534;18.644;2023-08-24T01:16:25;23.60;99.90
52769;DHT22;40471;44.534;18.644;2023-08-24T01:18:56;23.50;99.90
52769;DHT22;40471;44.534;18.644;2023-08-24T01:21:22;23.50;99.90
52769;DHT22;40471;44.534;18.644;2023-08-24T01:24:10;23.50;99.90
52769;DHT22;40471;44.534;18.644;2023-08-24T01:26:34;23.50;99.90
52769;DHT22;40471;44.534;18.644;2023-08-24T01:29:00;23.50;99.90
52769;DHT22;40471;44.534;18.644;2023-08-24T01:31:26;23.40;99.90
52769;DHT22;40471;44.534;18.644;2023-08-24T01:33:52;23.40;99.90
52769;DHT22;40471;44.534;18.644;2023-08-24T01:36:17;23.40;99.90
52769;DHT22;40471;44.534;18.644;2023-08-24T01:38:43;23.30;99.90
52769;DHT22;40471;44.534;18.644;2023-08-24T01:41:24;23.30;99.90
52769;DHT22;40471;44.534;18.644;2023-08-24T01:43:52;23.30;99.90
52769;DHT22;40471;44.534;18.644;2023-08-24T01:46:18;23.20;99.90
52769;DHT22;40471;44.534;18.644;2023-08-24T01:48:45;23.10;99.90
52769;DHT22;40471;44.534;18.644;2023-08-24T01:51:11;23.00;99.90
52769;DHT22;40471;44.534;18.644;2023-08-24T01:53:36;23.00;99.90
52769;DHT22;40471;44.534;18.644;2023-08-24T01:56:10;23.00;99.90
52769;DHT22;40471;44.534;18.644;2023-08-24T01:58:35;23.00;99.90
52769;DHT22;40471;44.534;18.644;2023-08-24T02:01:01;23.00;99.90
52769;DHT22;40471;44.534;18.644;2023-08-24T02:03:27;23.00;99.90
52769;DHT22;40471;44.534;18.644;2023-08-24T02:05:52;23.00;99.90
52769;DHT22;40471;44.534;18.644;2023-08-24T02:08:18;23.00;99.90
52769;DHT22;40471;44.534;18.644;2023-08-24T02:10:43;23.10;99.90
52769;DHT22;40471;44.534;18.644;2023-08-24T02:13:09;23.00;99.90
52769;DHT22;40471;44.534;18.644;2023-08-24T02:15:37;23.00;99.90
52769;DHT22;40471;44.534;18.644;2023-08-24T02:18:02;23.00;99.90
52769;DHT22;40471;44.534;18.644;2023-08-24T02:20:28;23.00;99.90
52769;DHT22;40471;44.534;18.644;2023-08-24T02:22:54;23.00;99.90
52769;DHT22;40471;44.534;18.644;2023-08-24T02:25:19;23.00;99.90
52769;DHT22;40471;44.534;18.644;2023-08-24T02:27:45;22.90;99.90
52769;DHT22;40471;44.534;18.644;2023-08-24T02:30:11;23.00;99.90
52769;DHT22;40471;44.534;18.644;2023-08-24T02:32:36;23.00;99.90
52769;DHT22;40471;44.534;18.644;2023-08-24T02:35:02;23.00;99.90
52769;DHT22;40471;44.534;18.644;2023-08-24T02:37:28;23.00;99.90
52769;DHT22;40471;44.534;18.644;2023-08-24T02:39:53;23.00;99.90
52769;DHT22;40471;44.534;18.644;2023-08-24T02:42:19;23.00;99.90
52769;DHT22;40471;44.534;18.644;2023-08-24T02:44:44;22.90;99.90
52769;DHT22;40471;44.534;18.644;2023-08-24T02:47:10;22.90;99.90
52769;DHT22;40471;44.534;18.644;2023-08-24T02:49:35;22.90;99.90
52769;DHT22;40471;44.534;18.644;2023-08-24T02:52:01;22.90;99.90
52769;DHT22;40471;44.534;18.644;2023-08-24T02:54:26;22.90;99.90
52769;DHT22;40471;44.534;18.644;2023-08-24T02:56:53;22.80;99.90
52769;DHT22;40471;44.534;18.644;2023-08-24T02:59:18;22.80;99.90
52769;DHT22;40471;44.534;18.644;2023-08-24T03:01:44;22.90;99.90
52769;DHT22;40471;44.534;18.644;2023-08-24T03:04:09;22.90;99.90
52769;DHT22;40471;44.534;18.644;2023-08-24T03:06:35;22.80;99.90
52769;DHT22;40471;44.534;18.644;2023-08-24T03:09:01;22.90;99.90
52769;DHT22;40471;44.534;18.644;2023-08-24T03:11:29;22.80;99.90
52769;DHT22;40471;44.534;18.644;2023-08-24T03:13:55;22.80;99.90
52769;DHT22;40471;44.534;18.644;2023-08-24T03:16:20;22.90;99.90
52769;DHT22;40471;44.534;18.644;2023-08-24T03:18:46;22.90;99.90
52769;DHT22;40471;44.534;18.644;2023-08-24T03:21:11;22.80;99.90
52769;DHT22;40471;44.534;18.644;2023-08-24T03:23:37;22.80;99.90
52769;DHT22;40471;44.534;18.644;2023-08-24T03:26:02;22.80;99.90
52769;DHT22;40471;44.534;18.644;2023-08-24T03:28:28;22.80;99.90
52769;DHT22;40471;44.534;18.644;2023-08-24T03:30:54;22.80;99.90
52769;DHT22;40471;44.534;18.644;2023-08-24T03:33:21;22.70;99.90
52769;DHT22;40471;44.534;18.644;2023-08-24T03:35:46;22.70;99.90
52769;DHT22;40471;44.534;18.644;2023-08-24T03:38:12;22.70;99.90
52769;DHT22;40471;44.534;18.644;2023-08-24T03:40:37;22.70;99.90
52769;DHT22;40471;44.534;18.644;2023-08-24T03:43:03;22.70;99.90
52769;DHT22;40471;44.534;18.644;2023-08-24T03:45:28;22.70;99.90
52769;DHT22;40471;44.534;18.644;2023-08-24T03:47:54;22.70;99.90
52769;DHT22;40471;44.534;18.644;2023-08-24T03:50:20;22.70;99.90
52769;DHT22;40471;44.534;18.644;2023-08-24T03:52:46;22.70;99.90
52769;DHT22;40471;44.534;18.644;2023-08-24T03:55:12;22.70;99.90
52769;DHT22;40471;44.534;18.644;2023-08-24T03:57:38;22.70;99.90
52769;DHT22;40471;44.534;18.644;2023-08-24T04:00:04;22.70;99.90
52769;DHT22;40471;44.534;18.644;2023-08-24T04:02:31;22.70;99.90
52769;DHT22;40471;44.534;18.644;2023-08-24T04:04:57;22.60;99.90
52769;DHT22;40471;44.534;18.644;2023-08-24T04:07:22;22.60;99.90
52769;DHT22;40471;44.534;18.644;2023-08-24T04:09:48;22.60;99.90
52769;DHT22;40471;44.534;18.644;2023-08-24T04:12:13;22.70;99.90
52769;DHT22;40471;44.534;18.644;2023-08-24T04:14:39;22.70;99.90
52769;DHT22;40471;44.534;18.644;2023-08-24T04:17:05;22.70;99.90
52769;DHT22;40471;44.534;18.644;2023-08-24T04:19:31;22.70;99.90
52769;DHT22;40471;44.534;18.644;2023-08-24T04:21:56;22.80;99.90
52769;DHT22;40471;44.534;18.644;2023-08-24T04:24:22;22.80;99.90
52769;DHT22;40471;44.534;18.644;2023-08-24T04:26:48;22.90;99.90
52769;DHT22;40471;44.534;18.644;2023-08-24T04:29:14;23.00;99.90
52769;DHT22;40471;44.534;18.644;2023-08-24T04:31:39;23.00;99.90
52769;DHT22;40471;44.534;18.644;2023-08-24T04:34:07;23.10;99.90
52769;DHT22;40471;44.534;18.644;2023-08-24T04:36:33;23.20;99.90
52769;DHT22;40471;44.534;18.644;2023-08-24T04:38:58;23.20;99.90
52769;DHT22;40471;44.534;18.644;2023-08-24T04:41:27;23.40;99.90
52769;DHT22;40471;44.534;18.644;2023-08-24T04:43:52;23.50;99.90
52769;DHT22;40471;44.534;18.644;2023-08-24T04:46:18;23.50;99.90
52769;DHT22;40471;44.534;18.644;2023-08-24T04:48:43;23.70;99.90
52769;DHT22;40471;44.534;18.644;2023-08-24T04:51:09;24.40;99.90
52769;DHT22;40471;44.534;18.644;2023-08-24T04:53:34;25.20;99.90
52769;DHT22;40471;44.534;18.644;2023-08-24T04:56:00;26.00;99.90
52769;DHT22;40471;44.534;18.644;2023-08-24T04:58:25;26.80;99.90
52769;DHT22;40471;44.534;18.644;2023-08-24T05:00:51;27.50;99.90
52769;DHT22;40471;44.534;18.644;2023-08-24T05:03:17;28.10;99.90
52769;DHT22;40471;44.534;18.644;2023-08-24T05:05:43;28.70;99.90
52769;DHT22;40471;44.534;18.644;2023-08-24T05:08:08;29.40;99.90
52769;DHT22;40471;44.534;18.644;2023-08-24T05:10:37;29.90;99.90
52769;DHT22;40471;44.534;18.644;2023-08-24T05:13:03;30.50;99.90
52769;DHT22;40471;44.534;18.644;2023-08-24T05:15:29;31.00;99.90
52769;DHT22;40471;44.534;18.644;2023-08-24T05:17:54;31.30;99.90
52769;DHT22;40471;44.534;18.644;2023-08-24T05:20:25;31.80;99.90
52769;DHT22;40471;44.534;18.644;2023-08-24T05:22:50;31.90;99.90
52769;DHT22;40471;44.534;18.644;2023-08-24T05:25:16;32.30;99.90
52769;DHT22;40471;44.534;18.644;2023-08-24T05:27:42;32.70;99.90
52769;DHT22;40471;44.534;18.644;2023-08-24T05:30:08;33.20;99.90
52769;DHT22;40471;44.534;18.644;2023-08-24T05:32:34;33.50;99.90
52769;DHT22;40471;44.534;18.644;2023-08-24T05:35:03;33.80;99.00
52769;DHT22;40471;44.534;18.644;2023-08-24T05:37:29;34.40;97.40
52769;DHT22;40471;44.534;18.644;2023-08-24T05:39:54;34.70;95.50
52769;DHT22;40471;44.534;18.644;2023-08-24T05:42:20;35.40;94.50
52769;DHT22;40471;44.534;18.644;2023-08-24T05:44:45;35.70;92.90
52769;DHT22;40471;44.534;18.644;2023-08-24T05:47:11;36.10;91.90
52769;DHT22;40471;44.534;18.644;2023-08-24T05:49:36;36.50;90.00
52769;DHT22;40471;44.534;18.644;2023-08-24T05:52:02;36.80;88.30
52769;DHT22;40471;44.534;18.644;2023-08-24T05:54:28;36.90;87.90
52769;DHT22;40471;44.534;18.644;2023-08-24T06:06:03;37.00;79.80
52769;DHT22;40471;44.534;18.644;2023-08-24T06:08:29;39.00;78.60
52769;DHT22;40471;44.534;18.644;2023-08-24T06:10:56;39.20;78.00
52769;DHT22;40471;44.534;18.644;2023-08-24T06:13:21;39.50;76.90
52769;DHT22;40471;44.534;18.644;2023-08-24T06:15:47;39.90;75.10
52769;DHT22;40471;44.534;18.644;2023-08-24T06:18:14;40.30;74.10
52769;DHT22;40471;44.534;18.644;2023-08-24T06:20:42;40.70;73.40
52769;DHT22;40471;44.534;18.644;2023-08-24T06:23:07;41.10;72.60
52769;DHT22;40471;44.534;18.644;2023-08-24T06:25:33;41.30;71.10
52769;DHT22;40471;44.534;18.644;2023-08-24T06:27:59;41.70;70.60
52769;DHT22;40471;44.534;18.644;2023-08-24T06:30:25;42.00;69.70
52769;DHT22;40471;44.534;18.644;2023-08-24T06:32:51;42.00;68.30
52769;DHT22;40471;44.534;18.644;2023-08-24T06:35:16;42.10;68.30
52769;DHT22;40471;44.534;18.644;2023-08-24T06:37:42;42.70;67.10
52769;DHT22;40471;44.534;18.644;2023-08-24T06:40:08;43.00;65.00
52769;DHT22;40471;44.534;18.644;2023-08-24T06:42:34;43.20;65.50
52769;DHT22;40471;44.534;18.644;2023-08-24T06:45:00;43.60;65.50
52769;DHT22;40471;44.534;18.644;2023-08-24T06:47:28;43.70;64.10
52769;DHT22;40471;44.534;18.644;2023-08-24T06:49:54;43.70;63.40
52769;DHT22;40471;44.534;18.644;2023-08-24T06:52:20;44.00;62.80
52769;DHT22;40471;44.534;18.644;2023-08-24T06:54:45;44.40;62.40
52769;DHT22;40471;44.534;18.644;2023-08-24T06:57:14;44.70;60.90
52769;DHT22;40471;44.534;18.644;2023-08-24T06:59:39;45.10;60.30
52769;DHT22;40471;44.534;18.644;2023-08-24T07:02:05;45.40;59.70
52769;DHT22;40471;44.534;18.644;2023-08-24T07:04:31;45.40;59.40
52769;DHT22;40471;44.534;18.644;2023-08-24T07:06:56;45.50;59.50
52769;DHT22;40471;44.534;18.644;2023-08-24T07:09:22;45.40;59.10
52769;DHT22;40471;44.534;18.644;2023-08-24T07:11:48;45.30;59.10
52769;DHT22;40471;44.534;18.644;2023-08-24T07:14:14;45.50;59.40
52769;DHT22;40471;44.534;18.644;2023-08-24T07:16:40;46.10;58.30
52769;DHT22;40471;44.534;18.644;2023-08-24T07:19:05;46.30;58.10
52769;DHT22;40471;44.534;18.644;2023-08-24T07:21:31;46.50;57.80
52769;DHT22;40471;44.534;18.644;2023-08-24T07:23:57;46.60;57.40
52769;DHT22;40471;44.534;18.644;2023-08-24T07:26:23;46.50;56.60
52769;DHT22;40471;44.534;18.644;2023-08-24T07:28:50;46.30;56.90
52769;DHT22;40471;44.534;18.644;2023-08-24T07:31:16;46.60;57.10
52769;DHT22;40471;44.534;18.644;2023-08-24T07:33:42;46.80;56.70
52769;DHT22;40471;44.534;18.644;2023-08-24T07:36:10;47.00;56.40
52769;DHT22;40471;44.534;18.644;2023-08-24T07:38:36;47.40;56.20
52769;DHT22;40471;44.534;18.644;2023-08-24T07:41:02;47.70;55.00
52769;DHT22;40471;44.534;18.644;2023-08-24T07:43:28;47.30;55.70
52769;DHT22;40471;44.534;18.644;2023-08-24T07:45:54;47.20;55.20
52769;DHT22;40471;44.534;18.644;2023-08-24T07:48:20;47.20;55.40
52769;DHT22;40471;44.534;18.644;2023-08-24T07:50:46;47.00;54.70
52769;DHT22;40471;44.534;18.644;2023-08-24T07:53:11;46.80;55.80
52769;DHT22;40471;44.534;18.644;2023-08-24T07:55:37;46.80;55.00
52769;DHT22;40471;44.534;18.644;2023-08-24T07:58:03;46.60;55.40
52769;DHT22;40471;44.534;18.644;2023-08-24T08:00:29;46.60;55.30
52769;DHT22;40471;44.534;18.644;2023-08-24T08:02:55;46.20;55.00
52769;DHT22;40471;44.534;18.644;2023-08-24T08:05:20;46.00;55.30
52769;DHT22;40471;44.534;18.644;2023-08-24T08:07:46;45.90;56.20
52769;DHT22;40471;44.534;18.644;2023-08-24T08:10:12;45.70;55.90
52769;DHT22;40471;44.534;18.644;2023-08-24T08:12:37;45.60;56.60
52769;DHT22;40471;44.534;18.644;2023-08-24T08:15:03;45.60;56.30
52769;DHT22;40471;44.534;18.644;2023-08-24T08:17:29;45.50;56.60
52769;DHT22;40471;44.534;18.644;2023-08-24T08:19:56;45.30;56.90
52769;DHT22;40471;44.534;18.644;2023-08-24T08:22:21;45.20;57.70
52769;DHT22;40471;44.534;18.644;2023-08-24T08:24:47;45.00;57.60
52769;DHT22;40471;44.534;18.644;2023-08-24T08:27:13;44.20;58.60
52769;DHT22;40471;44.534;18.644;2023-08-24T08:29:38;43.90;59.30
52769;DHT22;40471;44.534;18.644;2023-08-24T08:32:04;43.90;58.90
52769;DHT22;40471;44.534;18.644;2023-08-24T08:34:31;43.80;59.60
52769;DHT22;40471;44.534;18.644;2023-08-24T08:36:57;43.10;59.40
52769;DHT22;40471;44.534;18.644;2023-08-24T08:39:22;43.00;59.70
52769;DHT22;40471;44.534;18.644;2023-08-24T08:41:48;43.20;59.40
52769;DHT22;40471;44.534;18.644;2023-08-24T08:44:14;43.40;59.50
52769;DHT22;40471;44.534;18.644;2023-08-24T08:46:41;43.50;59.50
52769;DHT22;40471;44.534;18.644;2023-08-24T08:49:07;43.50;58.50
52769;DHT22;40471;44.534;18.644;2023-08-24T08:51:34;43.70;59.50
52769;DHT22;40471;44.534;18.644;2023-08-24T08:53:59;43.50;59.00
52769;DHT22;40471;44.534;18.644;2023-08-24T08:56:25;43.70;58.90
52769;DHT22;40471;44.534;18.644;2023-08-24T08:58:51;43.60;58.40
52769;DHT22;40471;44.534;18.644;2023-08-24T09:01:17;43.40;59.30
52769;DHT22;40471;44.534;18.644;2023-08-24T09:03:44;43.30;58.70
52769;DHT22;40471;44.534;18.644;2023-08-24T09:06:10;43.30;59.00
52769;DHT22;40471;44.534;18.644;2023-08-24T09:08:36;42.80;59.10
52769;DHT22;40471;44.534;18.644;2023-08-24T09:11:03;42.70;59.00
52769;DHT22;40471;44.534;18.644;2023-08-24T09:13:29;42.90;59.50
52769;DHT22;40471;44.534;18.644;2023-08-24T09:16:01;43.00;59.20
52769;DHT22;40471;44.534;18.644;2023-08-24T09:18:33;43.00;58.60
52769;DHT22;40471;44.534;18.644;2023-08-24T09:20:59;43.10;58.50
52769;DHT22;40471;44.534;18.644;2023-08-24T09:23:25;43.00;58.70
52769;DHT22;40471;44.534;18.644;2023-08-24T09:25:51;42.90;58.50
52769;DHT22;40471;44.534;18.644;2023-08-24T09:28:22;43.10;59.70
52769;DHT22;40471;44.534;18.644;2023-08-24T09:30:49;43.20;58.20
52769;DHT22;40471;44.534;18.644;2023-08-24T09:33:17;43.30;58.20
52769;DHT22;40471;44.534;18.644;2023-08-24T09:35:43;43.50;57.80
52769;DHT22;40471;44.534;18.644;2023-08-24T09:38:16;43.60;57.50
52769;DHT22;40471;44.534;18.644;2023-08-24T09:40:44;43.40;58.00
52769;DHT22;40471;44.534;18.644;2023-08-24T09:43:13;43.10;58.80
52769;DHT22;40471;44.534;18.644;2023-08-24T09:45:47;42.70;59.70
52769;DHT22;40471;44.534;18.644;2023-08-24T09:48:13;42.30;59.60
52769;DHT22;40471;44.534;18.644;2023-08-24T09:50:39;42.10;59.80
52769;DHT22;40471;44.534;18.644;2023-08-24T09:53:05;42.00;60.60
52769;DHT22;40471;44.534;18.644;2023-08-24T09:55:31;42.00;61.40
52769;DHT22;40471;44.534;18.644;2023-08-24T09:57:58;42.40;61.30
52769;DHT22;40471;44.534;18.644;2023-08-24T10:00:25;42.60;60.40
52769;DHT22;40471;44.534;18.644;2023-08-24T10:02:51;42.30;60.00
52769;DHT22;40471;44.534;18.644;2023-08-24T10:05:23;42.30;59.90
52769;DHT22;40471;44.534;18.644;2023-08-24T10:07:55;42.60;60.60
52769;DHT22;40471;44.534;18.644;2023-08-24T10:10:21;43.00;59.20
52769;DHT22;40471;44.534;18.644;2023-08-24T10:12:49;43.10;59.20
52769;DHT22;40471;44.534;18.644;2023-08-24T10:15:15;43.30;59.80
52769;DHT22;40471;44.534;18.644;2023-08-24T10:17:42;43.30;59.30
52769;DHT22;40471;44.534;18.644;2023-08-24T10:35:38;43.20;59.10
52769;DHT22;40471;44.534;18.644;2023-08-24T10:38:05;43.30;58.70
52769;DHT22;40471;44.534;18.644;2023-08-24T10:40:39;43.30;59.30
52769;DHT22;40471;44.534;18.644;2023-08-24T10:43:09;43.50;59.40
52769;DHT22;40471;44.534;18.644;2023-08-24T10:54:06;44.10;58.40
52769;DHT22;40471;44.534;18.644;2023-08-24T10:59:19;42.10;58.70
52769;DHT22;40471;44.534;18.644;2023-08-24T11:02:01;41.20;59.80
52769;DHT22;40471;44.534;18.644;2023-08-24T11:04:29;40.40;60.70
52769;DHT22;40471;44.534;18.644;2023-08-24T11:06:55;39.60;61.50
52769;DHT22;40471;44.534;18.644;2023-08-24T11:09:22;39.20;60.70
52769;DHT22;40471;44.534;18.644;2023-08-24T11:14:23;38.60;62.00
52769;DHT22;40471;44.534;18.644;2023-08-24T11:16:51;38.40;62.60
52769;DHT22;40471;44.534;18.644;2023-08-24T11:19:17;38.30;63.00
52769;DHT22;40471;44.534;18.644;2023-08-24T11:21:44;38.10;63.60
52769;DHT22;40471;44.534;18.644;2023-08-24T11:24:10;38.00;63.70
52769;DHT22;40471;44.534;18.644;2023-08-24T11:26:40;37.90;63.50
52769;DHT22;40471;44.534;18.644;2023-08-24T11:29:06;37.70;65.60
52769;DHT22;40471;44.534;18.644;2023-08-24T11:31:32;37.50;65.10
52769;DHT22;40471;44.534;18.644;2023-08-24T11:33:58;37.40;65.40
52769;DHT22;40471;44.534;18.644;2023-08-24T11:36:24;37.80;66.40
52769;DHT22;40471;44.534;18.644;2023-08-24T11:38:51;38.40;64.20
52769;DHT22;40471;44.534;18.644;2023-08-24T11:41:18;38.80;63.50
52769;DHT22;40471;44.534;18.644;2023-08-24T11:43:46;39.00;62.60
52769;DHT22;40471;44.534;18.644;2023-08-24T11:46:19;39.00;63.10
52769;DHT22;40471;44.534;18.644;2023-08-24T11:48:45;38.90;62.70
52769;DHT22;40471;44.534;18.644;2023-08-24T11:51:11;39.20;62.90
52769;DHT22;40471;44.534;18.644;2023-08-24T11:53:44;39.80;61.60
52769;DHT22;40471;44.534;18.644;2023-08-24T11:56:12;40.40;60.50
52769;DHT22;40471;44.534;18.644;2023-08-24T11:58:41;40.50;60.70
52769;DHT22;40471;44.534;18.644;2023-08-24T12:01:07;40.40;59.90
52769;DHT22;40471;44.534;18.644;2023-08-24T12:03:33;40.40;60.00
52769;DHT22;40471;44.534;18.644;2023-08-24T12:06:00;40.20;60.10
52769;DHT22;40471;44.534;18.644;2023-08-24T12:08:26;40.00;60.10
52769;DHT22;40471;44.534;18.644;2023-08-24T12:10:52;39.70;60.30
52769;DHT22;40471;44.534;18.644;2023-08-24T12:13:17;39.30;60.20
52769;DHT22;40471;44.534;18.644;2023-08-24T12:15:43;39.00;62.30
52769;DHT22;40471;44.534;18.644;2023-08-24T12:18:09;38.90;61.10
52769;DHT22;40471;44.534;18.644;2023-08-24T12:20:36;39.40;61.70
52769;DHT22;40471;44.534;18.644;2023-08-24T12:23:01;40.00;59.60
52769;DHT22;40471;44.534;18.644;2023-08-24T12:25:27;40.00;59.10
52769;DHT22;40471;44.534;18.644;2023-08-24T12:28:07;40.20;58.80
52769;DHT22;40471;44.534;18.644;2023-08-24T12:30:43;40.60;58.20
52769;DHT22;40471;44.534;18.644;2023-08-24T12:33:08;41.00;59.20
52769;DHT22;40471;44.534;18.644;2023-08-24T12:35:34;41.40;57.70
52769;DHT22;40471;44.534;18.644;2023-08-24T12:37:59;41.70;57.00
52769;DHT22;40471;44.534;18.644;2023-08-24T12:40:25;42.10;57.20
52769;DHT22;40471;44.534;18.644;2023-08-24T12:42:51;42.50;56.20
52769;DHT22;40471;44.534;18.644;2023-08-24T12:45:16;42.50;56.90
52769;DHT22;40471;44.534;18.644;2023-08-24T12:47:42;42.60;56.90
52769;DHT22;40471;44.534;18.644;2023-08-24T12:50:08;42.70;55.70
52769;DHT22;40471;44.534;18.644;2023-08-24T12:52:33;42.40;55.90
52769;DHT22;40471;44.534;18.644;2023-08-24T12:54:59;42.40;56.70
52769;DHT22;40471;44.534;18.644;2023-08-24T12:57:25;42.20;55.60
52769;DHT22;40471;44.534;18.644;2023-08-24T12:59:50;41.90;55.70
52769;DHT22;40471;44.534;18.644;2023-08-24T13:02:17;41.30;55.90
52769;DHT22;40471;44.534;18.644;2023-08-24T13:04:42;41.00;56.60
52769;DHT22;40471;44.534;18.644;2023-08-24T13:07:08;40.60;57.20
52769;DHT22;40471;44.534;18.644;2023-08-24T13:09:34;40.30;57.20
52769;DHT22;40471;44.534;18.644;2023-08-24T13:12:02;40.20;57.90
52769;DHT22;40471;44.534;18.644;2023-08-24T13:14:28;40.50;57.90
52769;DHT22;40471;44.534;18.644;2023-08-24T13:16:54;40.80;56.80
52769;DHT22;40471;44.534;18.644;2023-08-24T13:19:19;41.00;57.20
52769;DHT22;40471;44.534;18.644;2023-08-24T13:21:45;41.30;55.90
52769;DHT22;40471;44.534;18.644;2023-08-24T13:24:10;41.50;55.30
52769;DHT22;40471;44.534;18.644;2023-08-24T13:26:36;41.50;55.10
52769;DHT22;40471;44.534;18.644;2023-08-24T13:29:02;41.50;55.00
52769;DHT22;40471;44.534;18.644;2023-08-24T13:31:27;41.70;55.70
52769;DHT22;40471;44.534;18.644;2023-08-24T13:33:55;41.80;55.40
52769;DHT22;40471;44.534;18.644;2023-08-24T13:36:21;41.70;55.30
52769;DHT22;40471;44.534;18.644;2023-08-24T13:38:46;41.70;55.60
52769;DHT22;40471;44.534;18.644;2023-08-24T13:41:12;41.80;55.60
52769;DHT22;40471;44.534;18.644;2023-08-24T13:43:38;41.90;54.90
52769;DHT22;40471;44.534;18.644;2023-08-24T13:46:05;42.00;54.70
52769;DHT22;40471;44.534;18.644;2023-08-24T13:48:30;41.70;55.00
52769;DHT22;40471;44.534;18.644;2023-08-24T13:50:59;41.40;54.20
52769;DHT22;40471;44.534;18.644;2023-08-24T13:53:24;41.10;54.20
52769;DHT22;40471;44.534;18.644;2023-08-24T13:55:50;40.80;54.60
52769;DHT22;40471;44.534;18.644;2023-08-24T13:58:16;40.60;54.40
52769;DHT22;40471;44.534;18.644;2023-08-24T14:00:41;40.60;54.80
52769;DHT22;40471;44.534;18.644;2023-08-24T14:03:07;40.60;54.40
52769;DHT22;40471;44.534;18.644;2023-08-24T14:05:38;40.50;55.60
52769;DHT22;40471;44.534;18.644;2023-08-24T14:08:03;40.50;53.90
52769;DHT22;40471;44.534;18.644;2023-08-24T14:10:29;40.20;53.90
52769;DHT22;40471;44.534;18.644;2023-08-24T14:12:55;40.10;54.80
52769;DHT22;40471;44.534;18.644;2023-08-24T14:15:20;39.90;55.10
52769;DHT22;40471;44.534;18.644;2023-08-24T14:17:46;39.80;55.00
52769;DHT22;40471;44.534;18.644;2023-08-24T14:20:12;39.60;56.30
52769;DHT22;40471;44.534;18.644;2023-08-24T14:22:38;39.40;56.20
52769;DHT22;40471;44.534;18.644;2023-08-24T14:25:03;39.30;57.00
52769;DHT22;40471;44.534;18.644;2023-08-24T14:27:29;39.00;56.60
52769;DHT22;40471;44.534;18.644;2023-08-24T14:29:55;38.80;57.70
52769;DHT22;40471;44.534;18.644;2023-08-24T14:32:20;38.50;56.70
52769;DHT22;40471;44.534;18.644;2023-08-24T14:34:48;38.50;56.80
52769;DHT22;40471;44.534;18.644;2023-08-24T14:37:13;38.60;57.00
52769;DHT22;40471;44.534;18.644;2023-08-24T14:39:39;38.60;56.80
52769;DHT22;40471;44.534;18.644;2023-08-24T14:42:05;38.50;57.10
52769;DHT22;40471;44.534;18.644;2023-08-24T14:44:30;38.40;57.00
52769;DHT22;40471;44.534;18.644;2023-08-24T14:46:56;38.30;57.30
52769;DHT22;40471;44.534;18.644;2023-08-24T14:49:22;38.20;57.90
52769;DHT22;40471;44.534;18.644;2023-08-24T14:51:47;38.10;57.30
52769;DHT22;40471;44.534;18.644;2023-08-24T14:54:14;38.00;57.80
52769;DHT22;40471;44.534;18.644;2023-08-24T14:56:40;37.90;56.60
52769;DHT22;40471;44.534;18.644;2023-08-24T14:59:06;37.60;57.10
52769;DHT22;40471;44.534;18.644;2023-08-24T15:01:31;37.50;57.80
52769;DHT22;40471;44.534;18.644;2023-08-24T15:03:57;37.50;57.60
52769;DHT22;40471;44.534;18.644;2023-08-24T15:06:23;37.50;57.90
52769;DHT22;40471;44.534;18.644;2023-08-24T15:08:48;37.50;58.10
52769;DHT22;40471;44.534;18.644;2023-08-24T15:11:14;37.40;55.10
52769;DHT22;40471;44.534;18.644;2023-08-24T15:13:41;37.20;55.70
52769;DHT22;40471;44.534;18.644;2023-08-24T15:16:07;37.00;55.00
52769;DHT22;40471;44.534;18.644;2023-08-24T15:18:34;37.00;55.30
52769;DHT22;40471;44.534;18.644;2023-08-24T15:21:00;36.90;55.20
52769;DHT22;40471;44.534;18.644;2023-08-24T15:23:27;36.80;56.40
52769;DHT22;40471;44.534;18.644;2023-08-24T15:25:59;36.80;56.60
52769;DHT22;40471;44.534;18.644;2023-08-24T15:28:25;36.70;56.80
52769;DHT22;40471;44.534;18.644;2023-08-24T15:30:51;36.70;56.70
52769;DHT22;40471;44.534;18.644;2023-08-24T15:33:20;36.60;56.80
52769;DHT22;40471;44.534;18.644;2023-08-24T15:35:46;36.40;57.10
52769;DHT22;40471;44.534;18.644;2023-08-24T15:38:12;36.40;57.10
52769;DHT22;40471;44.534;18.644;2023-08-24T15:40:38;36.40;56.10
52769;DHT22;40471;44.534;18.644;2023-08-24T15:43:04;36.30;56.90
52769;DHT22;40471;44.534;18.644;2023-08-24T15:45:30;36.30;57.10
52769;DHT22;40471;44.534;18.644;2023-08-24T15:47:57;36.40;57.40
52769;DHT22;40471;44.534;18.644;2023-08-24T15:50:23;36.30;57.50